MUFL weather

Public forecast

Using degrees Celsius for public forecast. Weather courtesy of forecast.io.

Closest aviation weather report (METAR) to Florida Airport

Closest report is Ignacio Agramonte International Airport, 20.4 nm (37.8 km) ESE. Retrieved 2020/08/15 10:05 UTC (36 minutes ago):

MUCM 151005Z AUTO 09002KT 25/25 Q1014

Closest aviation forecast (TAF) to Florida Airport

Closest forecast is Ignacio Agramonte International Airport, 20.4 nm (37.8 km) ESE. Retrieved 2020/08/15 06:07 UTC (5 hours ago):

TAF MUCM 150500Z 1506/1606 03005KT 9000 SCT018 BECMG 1515/1517 05012KT TEMPO 1518/1524 5000 SHRA FEW018CB BKN020 BECMG 1601/1603 04005KT